Time;durP1;ratioP1;P1;durP2;ratioP2;P2;SDS_P1;SDS_P2;PMS_P1;PMS_P2;Temp;Humidity;BMP_temperature;BMP_pressure;BME280_temperature;BME280_humidity;BME280_pressure;Samples;Min_cycle;Max_cycle;Signal;HPM_P1;HPM_P2
2021/09/03 00:02:00;;;;;;;4.60;4.20;;;;;;;10.65;93.70;96070.06;5041501;28;20248;-71
2021/09/03 00:04:28;;;;;;;4.93;4.63;;;;;;;10.64;93.51;96063.16;5056357;28;20231;-71
2021/09/03 00:06:56;;;;;;;5.77;5.37;;;;;;;10.63;93.50;96064.16;5063801;28;20305;-70
2021/09/03 00:09:24;;;;;;;3.37;3.13;;;;;;;10.57;93.49;96062.19;5062220;28;20229;-71
2021/09/03 00:11:52;;;;;;;2.70;2.50;;;;;;;10.48;93.08;96064.88;5052270;28;20234;-71
2021/09/03 00:14:20;;;;;;;2.40;2.30;;;;;;;10.39;93.09;96065.91;5059120;28;20730;-71
2021/09/03 00:16:50;;;;;;;2.03;1.77;;;;;;;10.29;92.93;96060.03;5063261;28;20325;-71
2021/09/03 00:19:18;;;;;;;2.60;2.40;;;;;;;10.26;92.96;96060.38;5053209;28;20633;-71
2021/09/03 00:21:46;;;;;;;2.77;2.57;;;;;;;10.25;93.00;96054.28;5056282;28;20290;-71
2021/09/03 00:24:14;;;;;;;3.53;2.73;;;;;;;10.22;93.65;96059.88;5056554;28;20708;-71
2021/09/03 00:26:42;;;;;;;2.57;2.37;;;;;;;10.22;93.56;96059.06;5061650;28;20315;-70
2021/09/03 00:29:11;;;;;;;3.13;2.93;;;;;;;10.17;93.97;96061.38;5057979;28;20798;-70
2021/09/03 00:31:39;;;;;;;3.17;2.97;;;;;;;10.10;93.68;96060.41;5057724;28;20229;-70
2021/09/03 00:34:08;;;;;;;2.77;2.57;;;;;;;10.04;94.03;96045.28;5058079;28;20224;-69
2021/09/03 00:36:36;;;;;;;2.30;2.20;;;;;;;9.98;93.67;96046.78;5057202;28;20225;-70
2021/09/03 00:39:04;;;;;;;3.40;3.20;;;;;;;9.96;94.20;96052.22;5052218;28;20218;-70
2021/09/03 00:41:33;;;;;;;3.37;3.17;;;;;;;9.95;94.34;96047.94;5058389;28;20249;-70
2021/09/03 00:44:01;;;;;;;2.83;2.63;;;;;;;9.94;94.64;96043.66;5070354;28;20274;-70
2021/09/03 00:46:29;;;;;;;3.90;3.70;;;;;;;9.93;95.09;96042.00;5044629;28;20313;-70
2021/09/03 00:48:58;;;;;;;4.00;3.70;;;;;;;9.93;95.45;96049.91;5048701;28;20222;-70
2021/09/03 00:51:27;;;;;;;3.20;3.00;;;;;;;9.92;95.75;96048.28;5052723;28;20249;-70
2021/09/03 00:53:56;;;;;;;3.60;3.40;;;;;;;9.92;95.39;96043.00;5056492;28;20634;-70
2021/09/03 00:56:23;;;;;;;4.87;3.57;;;;;;;9.89;95.87;96042.53;5055732;28;20228;-70
2021/09/03 00:58:52;;;;;;;3.20;3.00;;;;;;;9.89;95.89;96035.44;5050234;28;20303;-70
2021/09/03 01:01:20;;;;;;;3.67;3.37;;;;;;;9.87;95.56;96040.06;5052141;28;20207;-70
2021/09/03 01:03:49;;;;;;;3.83;3.53;;;;;;;9.87;95.41;96041.88;5053378;28;20233;-70
2021/09/03 01:06:17;;;;;;;4.20;3.93;;;;;;;9.86;95.48;96043.69;5057692;28;20229;-70
2021/09/03 01:08:47;;;;;;;4.30;4.00;;;;;;;9.84;94.94;96037.75;5056738;28;20715;-70
2021/09/03 01:11:15;;;;;;;4.67;4.37;;;;;;;9.81;95.21;96035.47;5053934;28;20269;-70
2021/09/03 01:13:43;;;;;;;3.43;3.23;;;;;;;9.77;95.24;96031.53;5049297;28;20738;-70
2021/09/03 01:16:11;;;;;;;4.70;4.40;;;;;;;9.74;94.82;96028.41;5055097;28;20303;-69
2021/09/03 01:18:39;;;;;;;5.00;4.70;;;;;;;9.73;94.65;96027.59;5051429;28;20242;-70
2021/09/03 01:21:07;;;;;;;4.73;4.40;;;;;;;9.73;95.22;96032.88;5058486;28;20218;-70
2021/09/03 01:23:37;;;;;;;5.03;4.13;;;;;;;9.74;95.36;96037.13;5054955;28;20228;-70
2021/09/03 01:26:06;;;;;;;4.33;4.03;;;;;;;9.74;94.99;96039.78;5060599;28;20309;-70
2021/09/03 01:28:34;;;;;;;5.03;4.60;;;;;;;9.75;95.44;96035.31;5051650;28;20212;-71
2021/09/03 01:31:03;;;;;;;6.37;5.87;;;;;;;9.74;95.27;96034.50;5052600;28;20220;-70
2021/09/03 01:33:31;;;;;;;7.20;6.70;;;;;;;9.76;95.49;96032.50;5055159;28;20317;-70
2021/09/03 01:36:00;;;;;;;5.77;5.37;;;;;;;9.75;95.23;96030.88;5058379;28;20220;-71
2021/09/03 01:38:27;;;;;;;6.03;5.63;;;;;;;9.73;95.63;96030.22;5053471;28;20302;-70
2021/09/03 01:41:00;;;;;;;6.10;5.70;;;;;;;9.69;95.25;96031.53;5053327;28;20509;-70
2021/09/03 01:43:27;;;;;;;4.17;3.87;;;;;;;9.66;95.56;96026.63;5064433;28;20227;-70
2021/09/03 01:45:56;;;;;;;5.23;4.83;;;;;;;9.63;95.33;96030.41;5059918;28;20237;-70
2021/09/03 01:48:24;;;;;;;7.00;6.40;;;;;;;9.61;95.45;96028.94;5057960;28;20220;-70
2021/09/03 01:50:52;;;;;;;5.73;5.30;;;;;;;9.59;95.77;96030.91;5057238;28;20305;-70
2021/09/03 01:53:20;;;;;;;4.67;4.33;;;;;;;9.56;95.47;96031.25;5062949;28;20276;-70
2021/09/03 01:55:48;;;;;;;3.00;2.80;;;;;;;9.52;95.45;96029.97;5056316;28;20867;-70
2021/09/03 01:58:17;;;;;;;4.53;4.17;;;;;;;9.50;95.71;96026.66;5050643;28;20221;-70
2021/09/03 02:00:45;;;;;;;3.03;2.93;;;;;;;9.40;94.55;96024.19;5052096;28;20270;-70
2021/09/03 02:03:14;;;;;;;3.57;3.37;;;;;;;9.27;93.92;96022.09;5056142;28;20468;-70
2021/09/03 02:05:43;;;;;;;2.97;2.77;;;;;;;9.19;94.26;96024.72;5058132;28;20218;-70
2021/09/03 02:08:11;;;;;;;2.37;2.27;;;;;;;9.17;94.19;96015.38;5059307;28;20582;-70
2021/09/03 02:10:39;;;;;;;4.53;4.13;;;;;;;9.13;94.77;96022.75;5055014;28;20700;-70
2021/09/03 02:13:08;;;;;;;3.63;3.40;;;;;;;9.14;95.54;96027.03;5048407;28;20210;-70
2021/09/03 02:15:38;;;;;;;5.67;4.43;;;;;;;9.17;95.96;96021.44;5061931;28;20451;-70
2021/09/03 02:18:06;;;;;;;6.67;4.53;;;;;;;9.15;95.66;96018.16;5060230;28;20240;-71
2021/09/03 02:20:34;;;;;;;6.10;5.50;;;;;;;9.13;95.44;96009.59;5052533;28;20343;-70
2021/09/03 02:23:02;;;;;;;5.10;4.63;;;;;;;9.11;95.79;96006.31;5064217;28;20317;-71
2021/09/03 02:25:30;;;;;;;5.63;5.17;;;;;;;9.14;95.98;96005.97;5060295;28;20237;-70
2021/09/03 02:27:59;;;;;;;6.77;6.33;;;;;;;9.16;96.32;96014.53;5048236;28;20298;-70
2021/09/03 02:30:27;;;;;;;6.70;6.23;;;;;;;9.22;96.23;96002.50;5054525;28;20219;-70
2021/09/03 02:32:56;;;;;;;5.80;5.40;;;;;;;9.24;96.44;96000.56;5063888;28;20254;-70
2021/09/03 02:35:24;;;;;;;5.63;5.13;;;;;;;9.22;96.67;96013.03;5055768;28;20305;-70
2021/09/03 02:37:52;;;;;;;4.67;4.27;;;;;;;9.17;96.90;96005.66;5058599;28;20222;-70
2021/09/03 02:40:20;;;;;;;3.50;3.20;;;;;;;9.16;96.31;96004.00;5049301;28;20685;-70
2021/09/03 02:42:48;;;;;;;4.67;4.37;;;;;;;9.16;96.56;95998.75;5055695;28;20220;-70
2021/09/03 02:45:15;;;;;;;4.00;3.80;;;;;;;9.15;96.62;96005.00;5056906;28;20224;-70
2021/09/03 02:47:44;;;;;;;3.33;3.13;;;;;;;9.12;96.31;96007.94;5054441;28;20312;-71
2021/09/03 02:50:14;;;;;;;3.53;3.33;;;;;;;9.10;96.02;95996.75;5059689;28;20291;-70
2021/09/03 02:52:42;;;;;;;4.43;4.13;;;;;;;9.06;96.03;95998.91;5062990;28;20218;-70
2021/09/03 02:55:10;;;;;;;5.43;5.03;;;;;;;9.05;96.15;95997.28;5055053;28;20238;-71
2021/09/03 02:57:38;;;;;;;5.53;5.13;;;;;;;9.06;96.25;95998.09;5072480;28;20220;-69
2021/09/03 03:00:09;;;;;;;6.47;5.93;;;;;;;9.08;96.69;95988.22;5051630;28;20246;-70
2021/09/03 03:02:37;;;;;;;5.53;5.13;;;;;;;9.09;96.76;95988.03;5044884;28;20271;-71
2021/09/03 03:05:06;;;;;;;5.97;5.57;;;;;;;9.08;96.67;95985.59;5048839;28;20215;-70
2021/09/03 03:07:36;;;;;;;6.30;5.80;;;;;;;9.09;97.11;95977.53;5058092;28;21999;-70
2021/09/03 03:10:04;;;;;;;5.70;5.07;;;;;;;9.08;97.24;95996.13;5050981;28;20318;-71
2021/09/03 03:12:32;;;;;;;6.40;3.53;;;;;;;8.99;96.52;95997.94;5061811;28;20385;-70
2021/09/03 03:15:00;;;;;;;2.83;2.63;;;;;;;8.91;95.72;95984.78;5052390;28;20234;-70
2021/09/03 03:17:29;;;;;;;2.70;2.50;;;;;;;8.77;94.98;95983.59;5056513;28;20322;-71
2021/09/03 03:19:57;;;;;;;3.37;3.17;;;;;;;8.68;94.93;95984.59;5053404;28;20767;-70
2021/09/03 03:22:25;;;;;;;2.13;1.93;;;;;;;8.58;94.63;95978.69;5047423;28;20215;-70
2021/09/03 03:24:54;;;;;;;1.50;1.40;;;;;;;8.53;94.43;95979.19;5059938;28;20222;-70
2021/09/03 03:27:22;;;;;;;1.80;1.57;;;;;;;8.49;94.49;95974.41;5044986;28;20237;-70
2021/09/03 03:29:50;;;;;;;2.30;2.20;;;;;;;8.47;94.88;95973.75;5053626;28;20309;-70
2021/09/03 03:32:18;;;;;;;3.07;2.87;;;;;;;8.50;95.70;95978.66;5056871;28;20214;-70
2021/09/03 03:34:49;;;;;;;4.50;4.20;;;;;;;8.55;95.85;95979.00;5049557;28;20652;-70
2021/09/03 03:37:17;;;;;;;3.27;2.97;;;;;;;8.58;95.90;95978.69;5061900;28;20226;-70
2021/09/03 03:39:46;;;;;;;4.00;3.70;;;;;;;8.58;96.51;95978.69;5056183;28;20241;-71
2021/09/03 03:42:15;;;;;;;4.03;3.73;;;;;;;8.62;96.63;95987.91;5064610;28;20251;-70
2021/09/03 03:44:43;;;;;;;4.50;4.10;;;;;;;8.63;96.74;95988.72;5057893;28;20226;-71
2021/09/03 03:47:11;;;;;;;4.90;4.53;;;;;;;8.62;96.55;95985.28;5052574;28;20261;-70
2021/09/03 03:49:40;;;;;;;2.93;2.73;;;;;;;8.59;96.21;95990.00;5059005;28;20656;-71
2021/09/03 03:52:08;;;;;;;2.47;2.37;;;;;;;8.49;95.71;95984.91;5052144;28;20692;-70
2021/09/03 03:54:36;;;;;;;1.27;1.27;;;;;;;8.42;95.51;95989.19;5062124;28;20729;-71
2021/09/03 03:57:04;;;;;;;1.60;1.50;;;;;;;8.36;95.46;95985.41;5053969;28;20221;-70
2021/09/03 03:59:34;;;;;;;1.20;1.20;;;;;;;8.32;94.97;95993.72;5047674;28;20263;-70
2021/09/03 04:02:02;;;;;;;1.30;1.30;;;;;;;8.25;94.53;95994.41;5048511;28;20245;-70
2021/09/03 04:04:30;;;;;;;1.03;0.90;;;;;;;8.21;94.79;95993.06;5052908;28;20227;-70
2021/09/03 04:06:59;;;;;;;1.30;1.13;;;;;;;8.19;94.96;95989.78;5061208;28;20249;-70
2021/09/03 04:09:27;;;;;;;1.43;1.33;;;;;;;8.17;95.19;95986.47;5061180;28;20225;-70
2021/09/03 04:11:55;;;;;;;1.83;1.73;;;;;;;8.18;95.08;95988.13;5057708;28;20240;-69
2021/09/03 04:14:24;;;;;;;1.77;1.67;;;;;;;8.20;95.85;95986.16;5058305;28;20232;-70
2021/09/03 04:16:53;;;;;;;1.90;1.80;;;;;;;8.19;95.95;95992.41;5050796;28;20310;-70
2021/09/03 04:19:21;;;;;;;1.40;1.30;;;;;;;8.21;96.02;95986.97;5053252;28;20218;-68
2021/09/03 04:21:49;;;;;;;2.97;2.77;;;;;;;8.21;96.10;95987.78;5050451;28;20399;-68
2021/09/03 04:24:17;;;;;;;2.83;2.63;;;;;;;8.25;96.62;95983.88;5058179;28;20302;-68
2021/09/03 04:26:45;;;;;;;3.20;3.10;;;;;;;8.27;96.58;95986.34;5063699;28;20319;-67
2021/09/03 04:29:13;;;;;;;5.00;4.60;;;;;;;8.28;96.46;95985.34;5049884;28;20297;-68
2021/09/03 04:31:41;;;;;;;5.67;5.17;;;;;;;8.30;97.00;95985.19;5074892;28;20242;-67
2021/09/03 04:34:10;;;;;;;6.00;5.50;;;;;;;8.32;96.48;95985.84;5054259;28;20550;-68
2021/09/03 04:36:38;;;;;;;3.57;3.33;;;;;;;8.33;96.73;95984.88;5074978;28;20691;-68
2021/09/03 04:39:06;;;;;;;3.63;3.43;;;;;;;8.34;96.65;95989.97;5060343;28;20228;-68
2021/09/03 04:41:34;;;;;;;5.20;4.80;;;;;;;8.35;96.80;95993.47;5059881;28;20789;-69
2021/09/03 04:44:02;;;;;;;3.13;2.97;;;;;;;8.34;96.37;95989.97;5063839;28;20260;-68
2021/09/03 04:46:30;;;;;;;2.33;2.20;;;;;;;8.20;95.35;95990.59;5058021;28;20225;-68
2021/09/03 04:48:59;;;;;;;1.73;1.63;;;;;;;8.14;94.96;95989.44;5060352;28;20289;-68
2021/09/03 04:51:28;;;;;;;1.83;1.73;;;;;;;8.08;95.35;95992.72;5061188;28;20224;-68
2021/09/03 04:53:57;;;;;;;1.57;1.27;;;;;;;8.06;94.92;95997.31;5064241;28;20224;-69
2021/09/03 04:56:25;;;;;;;1.00;1.00;;;;;;;8.08;95.08;96002.41;5062250;28;20308;-67
2021/09/03 04:58:58;;;;;;;1.70;1.60;;;;;;;8.11;94.69;95997.63;5060143;28;20241;-68
2021/09/03 05:01:26;;;;;;;1.40;1.33;;;;;;;8.14;94.88;95989.44;5054572;28;20700;-68
2021/09/03 05:03:54;;;;;;;2.10;2.00;;;;;;;8.19;95.17;95988.94;5066478;28;20229;-68
2021/09/03 05:06:23;;;;;;;1.20;1.10;;;;;;;8.21;95.17;95985.16;5054120;28;20236;-68
2021/09/03 05:08:52;;;;;;;1.43;1.43;;;;;;;8.21;94.51;95987.78;5053460;28;20225;-68
2021/09/03 05:11:20;;;;;;;1.30;1.30;;;;;;;8.19;94.21;95979.25;5065362;28;20309;-68
2021/09/03 05:13:48;;;;;;;1.67;1.57;;;;;;;8.19;94.02;95984.50;5060380;28;20266;-68
2021/09/03 05:16:16;;;;;;;1.77;1.67;;;;;;;8.21;93.73;95977.28;5050445;28;20225;-67
2021/09/03 05:18:48;;;;;;;2.37;1.97;;;;;;;8.26;93.76;95980.25;5064043;28;20232;-67
2021/09/03 05:21:15;;;;;;;2.07;1.97;;;;;;;8.34;93.96;95983.91;5065249;28;20310;-68
2021/09/03 05:23:43;;;;;;;1.00;0.90;;;;;;;8.41;93.82;95977.88;5060833;28;20238;-68
2021/09/03 05:26:12;;;;;;;1.87;1.77;;;;;;;8.47;93.93;95981.63;5062878;28;20329;-68
2021/09/03 05:28:41;;;;;;;2.10;2.00;;;;;;;8.51;93.96;95982.97;5058035;28;20301;-68
2021/09/03 05:31:08;;;;;;;1.57;1.57;;;;;;;8.54;93.80;95982.63;5063206;28;20663;-67
2021/09/03 05:33:37;;;;;;;1.63;1.53;;;;;;;8.57;93.50;95976.22;5060203;28;20222;-68
2021/09/03 05:36:05;;;;;;;2.20;2.10;;;;;;;8.61;93.33;95981.00;5056215;28;20220;-68
2021/09/03 05:38:34;;;;;;;2.37;2.27;;;;;;;8.68;93.48;95984.59;5065348;28;20291;-68
2021/09/03 05:41:02;;;;;;;1.70;1.60;;;;;;;8.78;93.50;95982.66;5061734;28;20217;-68
2021/09/03 05:43:32;;;;;;;4.33;3.93;;;;;;;8.94;93.60;95978.34;5057358;28;20305;-68
2021/09/03 05:45:59;;;;;;;5.33;4.93;;;;;;;9.11;94.28;95979.97;5061781;28;20321;-67
2021/09/03 05:48:28;;;;;;;4.33;4.03;;;;;;;9.28;94.76;95972.88;5065774;28;20749;-68
2021/09/03 05:50:56;;;;;;;6.37;5.73;;;;;;;9.44;95.06;95964.94;5059365;28;20249;-68
2021/09/03 05:53:25;;;;;;;7.33;4.87;;;;;;;9.59;95.44;95970.31;5064166;28;20222;-68
2021/09/03 05:55:53;;;;;;;8.00;5.33;;;;;;;9.74;95.36;95968.63;5055538;28;20282;-68
2021/09/03 05:58:21;;;;;;;5.60;5.20;;;;;;;9.89;95.43;95969.56;5055971;28;20305;-67
2021/09/03 06:00:51;;;;;;;4.20;4.00;;;;;;;10.06;95.76;95974.72;5055376;28;20226;-68
2021/09/03 06:03:19;;;;;;;5.20;4.80;;;;;;;10.22;95.48;95977.31;5062935;28;20225;-68
2021/09/03 06:05:47;;;;;;;4.93;4.53;;;;;;;10.36;95.60;95976.56;5060033;28;20237;-68
2021/09/03 06:08:15;;;;;;;4.27;4.03;;;;;;;10.52;95.79;95984.38;5050862;28;20535;-68
2021/09/03 06:10:43;;;;;;;5.17;4.67;;;;;;;10.65;95.15;95985.63;5063290;28;20276;-68
2021/09/03 06:13:11;;;;;;;7.13;6.33;;;;;;;10.80;95.05;95983.88;5061065;28;20216;-68
2021/09/03 06:15:39;;;;;;;6.47;5.97;;;;;;;10.97;95.16;95985.38;5063494;28;20226;-67
2021/09/03 06:18:09;;;;;;;6.00;5.60;;;;;;;11.13;95.46;95983.56;5059744;28;20492;-68
2021/09/03 06:20:37;;;;;;;5.33;5.03;;;;;;;11.32;95.49;95977.78;5060716;28;20651;-68
2021/09/03 06:23:05;;;;;;;6.17;5.77;;;;;;;11.46;95.22;95973.50;5054236;28;20214;-68
2021/09/03 06:25:34;;;;;;;5.93;5.47;;;;;;;11.61;94.98;95976.97;5057667;28;20220;-68
2021/09/03 06:28:02;;;;;;;8.10;6.20;;;;;;;11.76;94.79;95974.31;5056377;28;20239;-70
2021/09/03 06:30:30;;;;;;;7.47;6.70;;;;;;;11.90;94.40;95982.28;5056338;28;20288;-70
2021/09/03 06:32:58;;;;;;;7.47;6.87;;;;;;;12.01;94.11;95978.34;5061278;28;20218;-70
2021/09/03 06:35:28;;;;;;;7.40;6.90;;;;;;;12.11;93.54;95984.16;5049357;28;20235;-70
2021/09/03 06:37:56;;;;;;;8.23;7.43;;;;;;;12.22;93.23;95991.63;5059863;28;20303;-70
2021/09/03 06:40:24;;;;;;;6.47;6.07;;;;;;;12.36;93.21;95986.50;5063392;28;20597;-70
2021/09/03 06:42:53;;;;;;;5.80;5.50;;;;;;;12.48;92.97;95985.00;5056236;28;20277;-70
2021/09/03 06:45:25;;;;;;;9.03;8.30;;;;;;;12.52;92.71;95986.25;5056114;28;20217;-70
2021/09/03 06:47:54;;;;;;;8.47;7.87;;;;;;;12.57;92.31;95983.88;5050853;28;20257;-70
2021/09/03 06:50:22;;;;;;;10.47;9.13;;;;;;;12.69;92.50;95977.06;5053767;28;20668;-70
2021/09/03 06:52:52;;;;;;;6.97;6.47;;;;;;;12.84;92.08;95987.59;5059200;28;20264;-70
2021/09/03 06:55:20;;;;;;;8.57;7.97;;;;;;;12.97;91.62;95985.06;5054024;28;20223;-70
2021/09/03 06:57:48;;;;;;;8.63;8.07;;;;;;;13.10;91.34;95989.66;5059027;28;20250;-70
2021/09/03 07:00:16;;;;;;;7.57;6.97;;;;;;;13.21;90.42;95985.69;5054873;28;20731;-70
2021/09/03 07:02:44;;;;;;;7.17;6.67;;;;;;;13.34;90.25;95981.31;5064173;28;20703;-70
2021/09/03 07:05:12;;;;;;;6.50;6.13;;;;;;;13.48;90.41;95976.09;5050466;28;20223;-70
2021/09/03 07:07:40;;;;;;;7.57;6.97;;;;;;;13.60;89.88;95979.84;5054372;28;20241;-70
2021/09/03 07:10:11;;;;;;;8.53;7.93;;;;;;;13.70;89.71;95980.31;5056749;28;20247;-70
2021/09/03 07:12:42;;;;;;;7.10;6.33;;;;;;;13.82;89.51;95986.72;5053633;28;20302;-71
2021/09/03 07:15:11;;;;;;;7.83;7.20;;;;;;;13.94;88.88;95986.97;5056799;28;20631;-70
2021/09/03 07:17:39;;;;;;;7.70;7.03;;;;;;;14.03;88.22;95983.16;5062941;28;20299;-71
2021/09/03 07:20:08;;;;;;;8.30;7.70;;;;;;;14.13;87.14;95986.25;5057013;28;20295;-71
2021/09/03 07:22:37;;;;;;;6.73;6.23;;;;;;;14.25;87.23;95986.50;5055626;28;20218;-71
2021/09/03 07:25:05;;;;;;;7.63;7.13;;;;;;;14.33;86.14;95986.31;5063325;28;20679;-71
2021/09/03 07:27:36;;;;;;;7.90;7.10;;;;;;;14.45;85.84;95983.97;5062156;28;20877;-71
2021/09/03 07:30:05;;;;;;;9.60;8.90;;;;;;;14.55;85.59;95983.59;5059445;28;20262;-70
2021/09/03 07:32:35;;;;;;;7.90;7.30;;;;;;;14.68;85.35;95994.22;5052040;28;20304;-70
2021/09/03 07:35:03;;;;;;;8.77;8.07;;;;;;;14.80;84.91;95981.97;5057877;28;20389;-71
2021/09/03 07:37:33;;;;;;;9.57;8.73;;;;;;;14.92;84.56;95984.88;5051267;28;20803;-71
2021/09/03 07:40:01;;;;;;;8.73;8.03;;;;;;;14.98;84.33;95979.53;5060977;28;20586;-71
2021/09/03 07:42:29;;;;;;;7.57;6.87;;;;;;;15.10;84.14;95992.25;5055552;28;20230;-70
2021/09/03 07:44:58;;;;;;;7.50;6.90;;;;;;;15.18;84.42;95984.06;5056026;28;20225;-70
2021/09/03 07:47:27;;;;;;;7.50;6.90;;;;;;;15.27;84.51;95983.66;5056867;28;20249;-70
2021/09/03 07:50:17;;;;;;;8.47;6.67;;;;;;;15.43;84.17;95976.28;5054346;28;20245;-71
2021/09/03 07:52:45;;;;;;;6.27;5.87;;;;;;;15.55;83.39;95975.47;5060394;28;20224;-71
2021/09/03 07:55:34;;;;;;;9.23;8.63;;;;;;;15.64;82.49;95978.75;5058412;28;20214;-71
2021/09/03 07:58:03;;;;;;;6.43;6.03;;;;;;;15.79;82.58;95987.28;5063770;28;20233;-71
2021/09/03 08:00:34;;;;;;;10.00;8.53;;;;;;;15.90;82.21;95988.50;5048031;28;20292;-70
2021/09/03 08:03:02;;;;;;;6.40;6.00;;;;;;;16.03;81.09;95988.47;5063552;28;20214;-70
2021/09/03 08:05:31;;;;;;;6.83;6.43;;;;;;;16.14;81.21;95987.81;5057454;28;20210;-71
2021/09/03 08:08:01;;;;;;;6.03;5.73;;;;;;;16.30;80.79;95994.53;5053816;28;20222;-71
2021/09/03 08:10:32;;;;;;;6.23;5.63;;;;;;;16.43;80.46;95993.63;5062902;28;20253;-70
2021/09/03 08:13:00;;;;;;;7.00;6.50;;;;;;;16.56;79.58;95988.25;5052374;28;20749;-71
2021/09/03 08:15:29;;;;;;;6.20;5.80;;;;;;;16.66;79.70;95983.28;5045349;28;20703;-71
2021/09/03 08:17:59;;;;;;;6.53;6.13;;;;;;;16.86;79.60;95974.38;5051672;28;20275;-71
2021/09/03 08:20:27;;;;;;;7.87;7.27;;;;;;;17.01;78.43;95974.91;5048968;28;20296;-70
2021/09/03 08:22:55;;;;;;;7.40;6.90;;;;;;;17.14;77.43;95988.13;5049747;28;20897;-71
2021/09/03 08:25:23;;;;;;;6.20;5.67;;;;;;;17.32;77.16;95980.19;5054615;28;20257;-71
2021/09/03 08:27:52;;;;;;;6.47;5.93;;;;;;;17.49;77.59;95982.31;5053739;28;20221;-71
2021/09/03 08:30:21;;;;;;;6.90;6.37;;;;;;;17.60;77.61;95989.59;5049210;28;20228;-71
2021/09/03 08:32:49;;;;;;;7.07;6.40;;;;;;;17.74;76.96;95985.81;5062282;28;20226;-71
2021/09/03 08:35:19;;;;;;;6.60;6.20;;;;;;;17.95;76.25;95992.56;5049810;28;20648;-71
2021/09/03 08:37:52;;;;;;;8.13;6.87;;;;;;;18.06;75.16;95993.66;5060457;28;20226;-71
2021/09/03 08:40:20;;;;;;;6.70;6.20;;;;;;;18.20;75.72;95984.47;5055862;28;20225;-71
2021/09/03 08:42:49;;;;;;;5.57;5.17;;;;;;;18.48;76.00;95990.09;5060291;28;20649;-71
2021/09/03 08:45:17;;;;;;;6.00;5.70;;;;;;;18.67;73.52;95992.75;5048966;28;20273;-71
2021/09/03 08:47:46;;;;;;;6.27;5.80;;;;;;;18.83;73.72;95989.44;5058879;28;20218;-71
2021/09/03 08:50:17;;;;;;;6.70;6.13;;;;;;;19.05;73.14;95984.41;5060772;28;20276;-71
2021/09/03 08:52:49;;;;;;;4.93;4.63;;;;;;;19.29;71.71;95985.25;5060256;28;20564;-71
2021/09/03 08:55:18;;;;;;;6.67;6.07;;;;;;;19.47;71.38;95990.50;5055815;28;22704;-72
2021/09/03 08:57:45;;;;;;;7.40;6.90;;;;;;;19.66;71.42;95982.41;5056232;28;20253;-72
2021/09/03 09:00:20;;;;;;;6.90;6.33;;;;;;;19.82;70.00;95979.03;5045594;28;20219;-71
2021/09/03 09:03:13;;;;;;;6.40;6.00;;;;;;;20.02;70.22;95982.13;5059819;28;20268;-71
2021/09/03 09:05:52;;;;;;;7.10;6.60;;;;;;;20.29;69.22;95987.81;5043687;28;20302;-71
2021/09/03 09:08:24;;;;;;;6.97;6.33;;;;;;;20.59;69.56;95982.28;5062024;28;22118;-71
2021/09/03 09:10:55;;;;;;;5.50;5.13;;;;;;;20.82;67.85;95985.91;5052570;28;20650;-71
2021/09/03 09:13:26;;;;;;;6.63;6.23;;;;;;;21.04;68.92;95984.19;5058151;28;20226;-71
2021/09/03 09:15:59;;;;;;;5.80;5.40;;;;;;;21.21;68.68;95974.31;5059210;28;20232;-71
2021/09/03 09:18:39;;;;;;;6.73;6.13;;;;;;;21.60;68.57;95982.47;5059144;28;20306;-69
2021/09/03 09:21:14;;;;;;;6.87;6.27;;;;;;;21.80;65.60;95972.03;5052209;28;20309;-68
2021/09/03 09:23:46;;;;;;;5.40;5.00;;;;;;;21.97;64.99;95966.63;5048023;28;20443;-69
2021/09/03 09:26:16;;;;;;;5.97;5.57;;;;;;;22.27;65.56;95963.53;5053499;28;20333;-69
2021/09/03 09:28:44;;;;;;;6.83;6.23;;;;;;;22.36;63.80;95959.34;5054840;28;20233;-68
2021/09/03 09:31:12;;;;;;;6.60;6.07;;;;;;;22.41;62.62;95966.69;5052898;28;20218;-69
2021/09/03 09:33:45;;;;;;;7.83;6.50;;;;;;;22.33;62.28;95959.06;5064049;28;20237;-69
2021/09/03 09:36:13;;;;;;;7.03;6.47;;;;;;;22.45;64.35;95956.22;5054276;28;20214;-70
2021/09/03 09:38:41;;;;;;;7.53;7.00;;;;;;;22.78;63.39;95964.13;5049691;28;20215;-69
2021/09/03 09:41:12;;;;;;;6.30;6.00;;;;;;;23.04;62.08;95956.31;5054516;28;20302;-69
2021/09/03 09:43:43;;;;;;;6.53;6.03;;;;;;;23.17;59.76;95947.84;5049974;28;20281;-69
2021/09/03 09:46:15;;;;;;;5.63;5.13;;;;;;;23.34;61.37;95943.16;5058064;28;20234;-69
2021/09/03 09:49:11;;;;;;;4.67;4.47;;;;;;;23.65;61.64;95940.69;5058189;28;20226;-69
2021/09/03 09:51:42;;;;;;;6.80;6.37;;;;;;;23.86;59.02;95939.75;5055896;28;20356;-69
2021/09/03 09:54:14;;;;;;;6.10;5.70;;;;;;;24.09;58.17;95942.03;5059390;28;20253;-69
2021/09/03 09:56:45;;;;;;;5.78;5.47;;;;;;;24.07;58.41;95935.31;5053894;28;20221;-69
2021/09/03 09:59:14;;;;;;;4.53;4.30;;;;;;;24.10;58.73;95935.56;5050633;28;20466;-69
2021/09/03 10:01:43;;;;;;;5.87;5.43;;;;;;;;;;5053380;28;20236;-69
2021/09/03 10:04:13;;;;;;;10.82;5.35;;;;;;;24.29;58.91;95932.41;5059287;28;20225;-69
2021/09/03 10:06:44;;;;;;;5.80;5.40;;;;;;;24.40;58.27;95934.09;5058635;28;20245;-68
2021/09/03 10:09:13;;;;;;;7.83;7.13;;;;;;;24.57;57.07;95929.31;5055233;28;20217;-70
2021/09/03 10:11:45;;;;;;;4.55;4.25;;;;;;;24.89;59.75;95931.03;5052499;28;20305;-69
2021/09/03 10:14:15;;;;;;;5.07;4.85;;;;;;;25.11;56.57;95923.50;5062772;28;20280;-69
2021/09/03 10:16:45;;;;;;;5.85;5.38;;;;;;;25.20;55.31;95927.28;5060077;28;20230;-69
2021/09/03 10:19:16;;;;;;;6.22;5.28;;;;;;;25.42;56.44;95927.03;5055207;28;20575;-69
2021/09/03 10:21:44;;;;;;;5.72;5.32;;;;;;;25.63;55.12;95919.72;5056621;28;20379;-69
2021/09/03 10:24:22;;;;;;;6.45;6.05;;;;;;;25.67;54.11;95920.78;5046195;28;20219;-69
2021/09/03 10:26:56;;;;;;;4.53;4.32;;;;;;;25.69;54.41;95924.00;5049726;28;20223;-69
2021/09/03 10:29:30;;;;;;;4.88;4.47;;;;;;;26.00;55.91;95913.97;5049160;28;20227;-68
2021/09/03 10:32:21;;;;;;;4.93;4.63;;;;;;;26.10;53.40;95918.53;5049002;28;20222;-68
2021/09/03 10:35:15;;;;;;;5.93;5.43;;;;;;;26.28;54.17;95920.66;5056453;28;20317;-69
2021/09/03 10:37:43;;;;;;;4.97;4.78;;;;;;;26.51;54.47;95916.50;5062808;28;20210;-69
2021/09/03 10:40:21;;;;;;;4.53;4.07;;;;;;;26.81;52.75;95923.66;5064022;28;20338;-70
2021/09/03 10:42:59;;;;;;;5.28;4.97;;;;;;;27.05;52.97;95922.97;5055810;28;20907;-69
2021/09/03 10:45:34;;;;;;;5.22;4.80;;;;;;;27.02;51.54;95910.78;5064534;28;20269;-69
2021/09/03 10:48:14;;;;;;;5.82;5.43;;;;;;;27.09;51.27;95915.94;5054967;28;20221;-68
2021/09/03 10:50:47;;;;;;;5.07;4.78;;;;;;;27.26;51.26;95905.50;5055766;28;20874;-68
2021/09/03 10:53:26;;;;;;;4.05;3.85;;;;;;;27.39;50.51;95902.13;5052888;28;20218;-69
2021/09/03 10:56:06;;;;;;;4.70;4.50;;;;;;;27.43;49.25;95907.78;5056236;28;20280;-69
2021/09/03 10:58:49;;;;;;;4.72;4.03;;;;;;;27.57;51.52;95907.94;5058815;28;20225;-70
2021/09/03 11:01:34;;;;;;;5.10;4.80;;;;;;;27.63;49.76;95906.81;5050917;28;20222;-69
2021/09/03 11:04:11;;;;;;;3.72;3.53;;;;;;;27.65;51.05;95896.47;5051627;28;20317;-69
2021/09/03 11:06:42;;;;;;;5.00;4.70;;;;;;;27.78;51.17;95904.75;5060967;28;20251;-68
2021/09/03 11:09:25;;;;;;;5.65;5.15;;;;;;;27.59;48.24;95893.00;5057530;28;20218;-69
2021/09/03 11:11:55;;;;;;;5.00;4.65;;;;;;;27.47;50.15;95898.81;5046362;28;20348;-69
2021/09/03 11:14:27;;;;;;;4.72;4.32;;;;;;;27.50;51.44;95886.56;5066404;28;20317;-68
2021/09/03 11:16:57;;;;;;;4.30;4.00;;;;;;;27.52;51.83;95892.50;5063322;28;20233;-69
2021/09/03 11:19:30;;;;;;;5.50;4.97;;;;;;;27.53;51.41;95896.06;5053734;28;20250;-69
2021/09/03 11:22:00;;;;;;;4.95;4.65;;;;;;;27.44;50.68;95885.81;5049417;28;20699;-69
2021/09/03 11:24:30;;;;;;;5.30;4.90;;;;;;;27.31;51.07;95882.94;5048127;28;20277;-69
2021/09/03 11:27:01;;;;;;;5.40;5.18;;;;;;;27.11;51.29;95883.94;5057863;28;20432;-69
2021/09/03 11:29:32;;;;;;;5.53;5.22;;;;;;;26.96;51.77;95886.72;5063174;28;20287;-68
2021/09/03 11:32:05;;;;;;;4.40;4.00;;;;;;;26.85;54.00;95881.38;5058482;28;20542;-69
2021/09/03 11:34:52;;;;;;;3.50;3.30;;;;;;;26.83;55.33;95877.34;5062744;28;20231;-70
2021/09/03 11:37:28;;;;;;;5.68;5.30;;;;;;;26.77;53.35;95884.69;5059780;28;20229;-69
2021/09/03 11:40:01;;;;;;;4.38;4.18;;;;;;;26.41;52.90;95878.66;5057497;28;20222;-69
2021/09/03 11:42:31;;;;;;;4.43;4.18;;;;;;;26.26;52.65;95884.94;5061917;28;20250;-70
2021/09/03 11:45:04;;;;;;;4.43;4.18;;;;;;;26.05;53.77;95877.97;5051827;28;20304;-69
2021/09/03 11:47:38;;;;;;;3.80;3.60;;;;;;;25.79;53.30;95879.97;5058834;28;20446;-69
2021/09/03 11:50:11;;;;;;;3.90;3.67;;;;;;;25.66;55.38;95881.31;5053270;28;20285;-69